サンティアゴ の空港の天気 - METARとTAF

アルトゥーロ・メリノ・ベニテス国際空港(サンティアゴ) ( SCEL / SCL ) - チリ サンティアゴ
飛行場実況気象(Metar)
観測時間10/15 14:00 CLST (10/15 17:00 UTC)
風向・風速南 3m/s
視程10km以上
天気現象
なし
気温22℃
湿度38%
気圧1016hPa
METARSCEL 151700Z 18006KT 130V240 CAVOK 22/07 Q1016 NOSIG
過去の天気等 Google飛行場航空写真 Wunderground天気予報

過去48時間のMETAR

飛行場予報(TAF)
発表時間: 10/15 13:10 CLST (10/15 16:10 UTC)
予報対象時間: 15日15時 CLST ~ 16日15時 CLST
風向・風速南南西 6m/s
視程10km以上
なし
15日21時 CLST ~ 15日23時 CLST に徐々に
風向・風速南南東 3m/s
視程8000m
なし
16日5時 CLST ~ 16日11時 CLST に一時的に
風向・風速不定 1m/s
視程4000m
天気現象もや
全天の4割程度の雲 雲底高度 370m
全天の8割程度の雲 雲底高度 610m
16日13時 CLST ~ 16日15時 CLST に徐々に
風向・風速南 3m/s
視程10km以上
少しの雲 雲底高度 1220m
TAF SCEL 151610Z 1518/1618 20012KT CAVOK TX22/1519Z TN08/1611Z
BECMG 1600/1602 15005KT 8000 NSC
TEMPO 1608/1614 VRB02KT 4000 BR SCT012 BKN020
BECMG 1616/1618 18006KT 9999 FEW040